Terminal Aerodrome Forecast
Issued by NWS St Louis, MO

Home | Current Version | Previous Version | Text Only | Print | Product List | Glossary On
Versions: 1 2 3 4 5 6 7 8 9 10 11 12 13
000
FTUS43 KLSX 071128
TAFCOU
TAF
KCOU 071128Z 0712/0812 33006KT P6SM OVC090
     FM071800 32007KT P6SM VCSH OVC050
     FM072200 30009KT P6SM BKN100
     FM080500 31009KT P6SM SCT150=

USA.gov is the U.S. government's official web portal to all federal, state and local government web resources and services.